createdAt,value
2018-06-27T00:00:20.475Z,60.1
2018-06-27T00:01:21.283Z,56.2
2018-06-27T00:02:22.091Z,56.9
2018-06-27T00:03:22.845Z,57.5
2018-06-27T00:04:23.633Z,57.0
2018-06-27T00:05:24.633Z,59.9
2018-06-27T00:06:25.426Z,55.1
2018-06-27T00:07:26.857Z,54.9
2018-06-27T00:08:27.633Z,56.7
2018-06-27T00:09:28.433Z,56.9
2018-06-27T00:10:29.428Z,56.1
2018-06-27T00:11:30.221Z,59.8
2018-06-27T00:12:31.252Z,57.0
2018-06-27T00:13:32.244Z,60.4
2018-06-27T00:14:33.250Z,58.6
2018-06-27T00:15:34.225Z,57.6
2018-06-27T00:16:35.032Z,58.8
2018-06-27T00:17:36.035Z,57.9
2018-06-27T00:18:36.929Z,59.7
2018-06-27T00:19:37.722Z,60.6
2018-06-27T00:20:38.523Z,57.8
2018-06-27T00:21:39.516Z,56.5
2018-06-27T00:22:40.489Z,57.8
2018-06-27T00:23:41.558Z,58.7
2018-06-27T00:24:42.342Z,59.7
2018-06-27T00:25:43.333Z,59.3
2018-06-27T00:26:44.282Z,61.1
2018-06-27T00:27:45.069Z,61.5
2018-06-27T00:28:46.157Z,60.9
2018-06-27T00:29:46.940Z,64.2
2018-06-27T00:30:47.752Z,61.2
2018-06-27T00:31:48.530Z,63.0
2018-06-27T00:32:49.314Z,64.9
2018-06-27T00:33:50.439Z,59.5
2018-06-27T00:34:51.383Z,60.7
2018-06-27T00:35:52.382Z,62.3
2018-06-27T00:36:53.369Z,60.5
2018-06-27T00:37:54.357Z,64.3
2018-06-27T00:38:55.348Z,61.5
2018-06-27T00:39:56.370Z,63.2
2018-06-27T00:40:57.203Z,58.2
2018-06-27T00:41:57.994Z,60.1
2018-06-27T00:42:58.805Z,60.0
2018-06-27T00:43:59.609Z,60.6
2018-06-27T00:45:01.231Z,60.6
2018-06-27T00:46:02.218Z,62.3
2018-06-27T00:47:03.213Z,62.2
2018-06-27T00:48:04.213Z,63.1
2018-06-27T00:49:05.211Z,63.4
2018-06-27T00:50:06.236Z,63.9
2018-06-27T00:51:07.046Z,63.2
2018-06-27T00:52:07.831Z,62.2
2018-06-27T00:53:08.653Z,63.3
2018-06-27T00:54:09.455Z,62.8
2018-06-27T00:55:10.338Z,66.9
2018-06-27T00:56:11.123Z,68.5
2018-06-27T00:57:11.900Z,67.9
2018-06-27T00:58:12.887Z,65.7
2018-06-27T00:59:13.921Z,66.3
2018-06-27T01:00:14.702Z,69.6
2018-06-27T01:01:15.694Z,68.3
2018-06-27T01:02:16.691Z,70.8
2018-06-27T01:03:17.683Z,72.0
2018-06-27T01:04:18.511Z,78.6
2018-06-27T01:05:19.523Z,71.4
2018-06-27T01:06:20.467Z,71.4
2018-06-27T01:07:21.316Z,70.8
2018-06-27T01:08:22.093Z,75.0
2018-06-27T01:09:23.216Z,78.9
2018-06-27T01:10:24.315Z,74.0
2018-06-27T01:11:25.751Z,78.1
2018-06-27T01:12:26.750Z,75.7
2018-06-27T01:13:27.817Z,74.8
2018-06-27T01:14:28.603Z,78.3
2018-06-27T01:15:29.619Z,74.1
2018-06-27T01:16:30.396Z,77.0
2018-06-27T01:17:31.173Z,77.2
2018-06-27T01:18:32.156Z,75.3
2018-06-27T01:19:33.133Z,76.6
2018-06-27T01:20:34.406Z,79.3
2018-06-27T01:21:35.675Z,81.4
2018-06-27T01:22:36.721Z,78.7
2018-06-27T01:23:37.513Z,81.6
2018-06-27T01:24:38.289Z,81.2
2018-06-27T01:25:39.127Z,83.3
2018-06-27T01:26:39.931Z,83.4
2018-06-27T01:27:40.709Z,82.9
2018-06-27T01:28:41.482Z,76.3
2018-06-27T01:29:42.327Z,79.1
2018-06-27T01:30:43.143Z,80.9
2018-06-27T01:31:43.964Z,83.8
2018-06-27T01:32:45.000Z,85.4
2018-06-27T01:33:45.977Z,81.1
2018-06-27T01:34:46.963Z,82.5
2018-06-27T01:35:47.995Z,79.4
2018-06-27T01:36:48.971Z,79.0
2018-06-27T01:37:49.958Z,81.5
2018-06-27T01:38:50.957Z,77.3
2018-06-27T01:39:51.748Z,87.2
2018-06-27T01:40:52.539Z,77.4
2018-06-27T01:41:53.342Z,79.6
2018-06-27T01:42:54.122Z,81.9
2018-06-27T01:43:55.172Z,81.7
2018-06-27T01:44:55.956Z,85.4
2018-06-27T01:45:56.921Z,80.9
2018-06-27T01:46:57.918Z,83.8
2018-06-27T01:47:58.993Z,83.1
2018-06-27T01:49:00.027Z,83.5
2018-06-27T01:50:01.011Z,81.2
2018-06-27T01:51:01.797Z,85.6
2018-06-27T01:52:02.583Z,82.5
2018-06-27T01:53:03.620Z,83.1
2018-06-27T01:54:04.614Z,82.0
2018-06-27T01:55:05.599Z,82.9
2018-06-27T01:56:06.408Z,86.3
2018-06-27T01:57:07.170Z,82.6
2018-06-27T01:58:08.009Z,87.6
2018-06-27T01:59:08.989Z,83.1
2018-06-27T02:00:09.976Z,83.5
2018-06-27T02:01:11.034Z,81.9
2018-06-27T02:02:12.039Z,85.9
2018-06-27T02:03:13.073Z,85.9
2018-06-27T02:04:13.804Z,85.2
2018-06-27T02:05:14.587Z,88.2
2018-06-27T02:06:15.629Z,90.3
2018-06-27T02:07:16.668Z,85.8
2018-06-27T02:08:17.453Z,83.8
2018-06-27T02:09:18.239Z,89.6
2018-06-27T02:11:35.020Z,91.1
2018-06-27T02:12:35.817Z,84.9
2018-06-27T02:13:36.601Z,87.8
2018-06-27T02:14:37.592Z,86.9
2018-06-27T02:15:38.368Z,87.2
2018-06-27T02:16:39.131Z,86.2
2018-06-27T02:17:40.110Z,87.3
2018-06-27T02:18:41.089Z,81.3
2018-06-27T02:19:42.086Z,83.9
2018-06-27T02:20:43.073Z,83.2
2018-06-27T02:21:44.101Z,86.6
2018-06-27T02:22:44.878Z,85.1
2018-06-27T02:23:45.664Z,86.0
2018-06-27T02:24:46.479Z,85.6
2018-06-27T02:25:47.258Z,84.8
2018-06-27T02:26:48.044Z,84.9
2018-06-27T02:27:48.831Z,81.9
2018-06-27T02:28:49.871Z,86.5
2018-06-27T02:29:50.879Z,82.7
2018-06-27T02:30:51.855Z,88.7
2018-06-27T02:31:52.814Z,87.8
2018-06-27T02:32:53.793Z,86.6
2018-06-27T02:33:54.778Z,86.6
2018-06-27T02:34:55.553Z,88.3
2018-06-27T02:35:56.589Z,83.8
2018-06-27T02:36:57.393Z,88.3
2018-06-27T02:37:58.189Z,94.1
2018-06-27T02:38:58.972Z,90.4
2018-06-27T02:39:59.752Z,86.7
2018-06-27T02:41:00.721Z,90.2
2018-06-27T02:42:01.799Z,86.2
2018-06-27T02:43:02.704Z,88.5
2018-06-27T02:44:03.650Z,81.4
2018-06-27T02:45:04.883Z,84.8
2018-06-27T02:46:05.880Z,86.1
2018-06-27T02:47:06.645Z,86.8
2018-06-27T02:48:07.646Z,88.1
2018-06-27T02:49:08.425Z,81.8
2018-06-27T02:50:09.759Z,88.3
2018-06-27T02:51:10.525Z,84.5
2018-06-27T02:52:11.545Z,85.2
2018-06-27T02:53:12.534Z,82.7
2018-06-27T02:54:13.544Z,87.7
2018-06-27T02:55:14.605Z,79.5
2018-06-27T02:56:15.901Z,85.3
2018-06-27T02:57:16.886Z,87.4
2018-06-27T02:58:17.673Z,86.0
2018-06-27T02:59:18.485Z,87.2
2018-06-27T03:00:19.254Z,87.3
2018-06-27T03:01:20.006Z,86.4
2018-06-27T03:02:20.805Z,85.6
2018-06-27T03:03:21.596Z,81.8
2018-06-27T03:04:22.355Z,87.2
2018-06-27T03:05:23.325Z,90.6
2018-06-27T03:06:24.329Z,81.8
2018-06-27T03:07:25.101Z,83.3
2018-06-27T03:08:26.355Z,88.8
2018-06-27T03:09:27.331Z,87.4
2018-06-27T03:10:28.341Z,85.9
2018-06-27T03:11:29.119Z,89.5
2018-06-27T03:12:29.942Z,90.1
2018-06-27T03:13:30.733Z,90.1
2018-06-27T03:14:31.699Z,87.7
2018-06-27T03:15:32.667Z,89.1
2018-06-27T03:16:33.653Z,91.0
2018-06-27T03:17:35.137Z,90.4
2018-06-27T03:18:36.123Z,95.4
2018-06-27T03:19:36.933Z,100.3
2018-06-27T03:20:37.714Z,222.8
2018-06-27T03:21:38.507Z,100.1
2018-06-27T03:22:39.291Z,96.8
2018-06-27T03:23:40.083Z,92.6
2018-06-27T03:24:41.314Z,91.7
2018-06-27T03:25:42.292Z,93.2
2018-06-27T03:26:43.083Z,94.2
2018-06-27T03:27:44.054Z,92.4
2018-06-27T03:28:45.295Z,90.8
2018-06-27T03:29:46.299Z,87.1
2018-06-27T03:30:47.277Z,91.3
2018-06-27T03:31:48.269Z,98.4
2018-06-27T03:32:49.313Z,86.3
2018-06-27T03:33:50.309Z,91.1
2018-06-27T03:34:51.295Z,88.7
2018-06-27T03:35:52.057Z,84.0
2018-06-27T03:36:52.846Z,83.3
2018-06-27T03:37:53.637Z,82.1
2018-06-27T03:38:54.459Z,85.7
2018-06-27T03:39:55.287Z,85.7
2018-06-27T03:40:56.063Z,88.2
2018-06-27T03:41:56.859Z,88.0
2018-06-27T03:42:57.649Z,87.8
2018-06-27T03:43:58.633Z,85.0
2018-06-27T03:44:59.688Z,83.1
2018-06-27T03:46:00.695Z,85.6
2018-06-27T03:47:01.677Z,83.5
2018-06-27T03:48:02.680Z,82.5
2018-06-27T03:49:03.665Z,86.1
2018-06-27T03:50:05.094Z,83.4
2018-06-27T03:51:05.884Z,80.6
2018-06-27T03:52:06.682Z,80.8
2018-06-27T03:53:07.468Z,85.2
2018-06-27T03:54:08.460Z,84.8
2018-06-27T03:55:09.232Z,83.4
2018-06-27T03:56:10.030Z,80.6
2018-06-27T03:57:11.070Z,84.1
2018-06-27T03:58:12.074Z,82.3
2018-06-27T03:59:13.064Z,86.5
2018-06-27T04:00:14.386Z,87.9
2018-06-27T04:01:15.401Z,85.1
2018-06-27T04:02:16.218Z,85.7
2018-06-27T04:03:17.004Z,79.8
2018-06-27T04:04:17.797Z,84.4
2018-06-27T04:05:18.578Z,87.3
2018-06-27T04:06:19.372Z,89.1
2018-06-27T04:07:20.412Z,88.5
2018-06-27T04:08:21.182Z,84.1
2018-06-27T04:09:21.961Z,85.1
2018-06-27T04:10:22.951Z,85.7
2018-06-27T04:11:23.940Z,83.0
2018-06-27T04:12:24.969Z,86.2
2018-06-27T04:13:26.148Z,84.3
2018-06-27T04:14:26.996Z,84.8
2018-06-27T04:15:28.014Z,85.7
2018-06-27T04:16:28.799Z,86.4
2018-06-27T04:17:29.822Z,88.2
2018-06-27T04:18:30.595Z,87.3
2018-06-27T04:19:31.376Z,88.8
2018-06-27T04:20:32.373Z,85.8
2018-06-27T04:21:33.379Z,87.8
2018-06-27T04:22:34.362Z,87.7
2018-06-27T04:23:35.348Z,84.9
2018-06-27T04:24:36.339Z,82.4
2018-06-27T04:25:37.114Z,89.0
2018-06-27T04:26:37.926Z,85.9
2018-06-27T04:27:38.945Z,87.9
2018-06-27T04:28:39.732Z,80.5
2018-06-27T04:29:40.509Z,84.3
2018-06-27T04:30:41.299Z,84.2
2018-06-27T04:31:42.100Z,85.4
2018-06-27T04:32:42.955Z,88.1
2018-06-27T04:33:43.719Z,84.2
2018-06-27T04:34:44.493Z,84.8
2018-06-27T04:35:45.537Z,90.5
2018-06-27T04:36:46.489Z,84.6
2018-06-27T04:37:47.494Z,84.7
2018-06-27T04:38:48.434Z,84.4
2018-06-27T04:39:49.161Z,81.9
2018-06-27T04:40:50.151Z,79.9
2018-06-27T04:41:50.880Z,83.4
2018-06-27T04:42:51.673Z,82.7
2018-06-27T04:43:52.393Z,78.7
2018-06-27T04:44:53.180Z,79.9
2018-06-27T04:45:54.224Z,80.7
2018-06-27T04:46:54.983Z,78.1
2018-06-27T04:47:56.160Z,79.5
2018-06-27T04:48:57.131Z,76.1
2018-06-27T04:49:58.074Z,72.2
2018-06-27T04:50:59.106Z,81.5
2018-06-27T04:52:00.130Z,76.1
2018-06-27T04:53:01.138Z,79.1
2018-06-27T04:54:01.934Z,76.4
2018-06-27T04:55:02.717Z,73.6
2018-06-27T04:56:03.788Z,74.0
2018-06-27T04:57:04.291Z,72.7
2018-06-27T04:58:05.056Z,76.7
2018-06-27T04:59:05.843Z,77.7
2018-06-27T05:00:06.842Z,72.3
2018-06-27T05:01:08.061Z,76.0
2018-06-27T05:02:09.063Z,74.7
2018-06-27T05:03:10.066Z,73.9
2018-06-27T05:04:11.062Z,73.0
2018-06-27T05:05:12.061Z,72.8
2018-06-27T05:06:12.886Z,68.5
2018-06-27T05:07:13.684Z,70.0
2018-06-27T05:08:14.469Z,70.2
2018-06-27T05:09:15.296Z,63.5
2018-06-27T05:10:16.094Z,62.5
2018-06-27T05:11:17.196Z,61.7
2018-06-27T05:12:17.975Z,59.7
2018-06-27T05:13:18.984Z,61.9
2018-06-27T05:14:20.248Z,61.9
2018-06-27T05:15:21.030Z,59.1
2018-06-27T05:16:21.812Z,58.8
2018-06-27T05:17:22.607Z,58.1
2018-06-27T05:18:23.662Z,58.2
2018-06-27T05:19:24.441Z,58.7
2018-06-27T05:20:25.223Z,58.5
2018-06-27T05:21:26.012Z,59.6
2018-06-27T05:22:26.817Z,60.1
2018-06-27T05:23:27.823Z,62.2
2018-06-27T05:24:28.615Z,59.1
2018-06-27T05:25:29.636Z,54.2
2018-06-27T05:26:30.633Z,52.3
2018-06-27T05:27:31.843Z,51.6
2018-06-27T05:28:32.852Z,52.2
2018-06-27T05:29:33.850Z,54.2
2018-06-27T05:30:34.649Z,51.5
2018-06-27T05:31:35.448Z,53.8
2018-06-27T05:32:36.304Z,51.7
2018-06-27T05:33:37.465Z,50.8
2018-06-27T05:34:38.478Z,48.8
2018-06-27T05:35:39.482Z,49.1
2018-06-27T05:36:40.928Z,47.1
2018-06-27T05:37:41.913Z,46.5
2018-06-27T05:38:42.961Z,45.7
2018-06-27T05:39:43.961Z,44.9
2018-06-27T05:40:44.746Z,46.4
2018-06-27T05:41:45.554Z,41.9
2018-06-27T05:42:46.336Z,41.4
2018-06-27T05:43:47.118Z,39.3
2018-06-27T05:44:47.894Z,40.3
2018-06-27T05:45:48.693Z,38.9
2018-06-27T05:46:49.470Z,40.2
2018-06-27T05:47:50.461Z,41.0
2018-06-27T05:48:51.894Z,38.0
2018-06-27T05:49:52.898Z,40.1
2018-06-27T05:50:53.913Z,39.4
2018-06-27T05:51:54.899Z,37.1
2018-06-27T05:52:55.722Z,35.3
2018-06-27T05:53:56.553Z,34.5
2018-06-27T05:54:57.345Z,34.1
2018-06-27T05:55:58.112Z,33.5
2018-06-27T05:56:58.888Z,32.0
2018-06-27T05:57:59.657Z,32.3
2018-06-27T05:59:00.689Z,31.2
2018-06-27T06:00:01.706Z,30.1
2018-06-27T06:01:02.713Z,30.1
2018-06-27T06:02:03.949Z,30.0
2018-06-27T06:03:04.940Z,27.5
2018-06-27T06:04:06.004Z,27.7
2018-06-27T06:05:06.771Z,27.5
2018-06-27T06:06:07.572Z,26.9
2018-06-27T06:07:08.587Z,24.3
2018-06-27T06:08:09.676Z,25.3
2018-06-27T06:09:10.521Z,24.3
2018-06-27T06:10:11.313Z,23.9
2018-06-27T06:11:12.365Z,23.7
2018-06-27T06:12:13.331Z,23.3
2018-06-27T06:13:14.365Z,22.9
2018-06-27T06:14:15.332Z,22.2
2018-06-27T06:15:16.397Z,23.1
2018-06-27T06:16:17.204Z,23.8
2018-06-27T06:17:18.002Z,23.5
2018-06-27T06:18:18.798Z,24.1
2018-06-27T06:19:19.611Z,23.6
2018-06-27T06:20:20.450Z,22.7
2018-06-27T06:21:21.230Z,23.7
2018-06-27T06:22:22.225Z,24.3
2018-06-27T06:23:23.214Z,25.1
2018-06-27T06:24:24.233Z,23.3
2018-06-27T06:25:25.473Z,25.0
2018-06-27T06:26:26.446Z,25.9
2018-06-27T06:27:27.265Z,24.4
2018-06-27T06:28:28.048Z,24.0
2018-06-27T06:29:28.848Z,22.3
2018-06-27T06:30:29.855Z,23.1
2018-06-27T06:31:30.631Z,25.5
2018-06-27T06:32:31.453Z,23.6
2018-06-27T06:33:32.402Z,24.2
2018-06-27T06:34:33.411Z,22.8
2018-06-27T06:35:34.690Z,23.3
2018-06-27T06:36:35.698Z,24.1
2018-06-27T06:37:36.481Z,23.6
2018-06-27T06:38:37.289Z,22.8
2018-06-27T06:39:38.068Z,22.4
2018-06-27T06:40:39.178Z,21.4
2018-06-27T06:41:39.927Z,22.0
2018-06-27T06:42:40.761Z,22.8
2018-06-27T06:43:41.571Z,22.5
2018-06-27T06:44:42.329Z,23.1
2018-06-27T06:45:43.114Z,21.9
2018-06-27T06:46:44.124Z,22.3
2018-06-27T06:47:45.097Z,23.1
2018-06-27T06:48:46.100Z,22.4
2018-06-27T06:49:47.113Z,22.6
2018-06-27T06:50:48.114Z,22.6
2018-06-27T06:51:48.907Z,22.3
2018-06-27T06:52:49.946Z,21.5
2018-06-27T06:53:50.756Z,22.5
2018-06-27T06:54:51.542Z,21.9
2018-06-27T06:55:52.356Z,22.2
2018-06-27T06:56:53.131Z,23.0
2018-06-27T06:57:53.943Z,24.1
2018-06-27T06:58:54.963Z,25.7
2018-06-27T06:59:55.967Z,24.1
2018-06-27T07:00:56.945Z,25.2
2018-06-27T07:01:57.928Z,26.5
2018-06-27T07:02:58.968Z,24.5
2018-06-27T07:03:59.975Z,24.5
2018-06-27T07:05:00.806Z,24.2
2018-06-27T07:06:01.586Z,25.4
2018-06-27T07:07:02.398Z,25.5
2018-06-27T07:08:03.249Z,24.8
2018-06-27T07:09:04.038Z,24.2
2018-06-27T07:10:04.822Z,23.3
2018-06-27T07:11:05.657Z,22.6
2018-06-27T07:12:06.809Z,24.0
2018-06-27T07:13:07.854Z,23.8
2018-06-27T07:14:08.871Z,22.9
2018-06-27T07:15:09.859Z,22.2
2018-06-27T07:16:10.857Z,20.7
2018-06-27T07:17:11.824Z,21.7
2018-06-27T07:18:12.817Z,22.7
2018-06-27T07:19:13.866Z,21.1
2018-06-27T07:20:14.656Z,21.2
2018-06-27T07:21:15.465Z,22.1
2018-06-27T07:22:16.263Z,22.7
2018-06-27T07:23:17.063Z,21.9
2018-06-27T07:24:18.068Z,22.3
2018-06-27T07:25:19.130Z,23.4
2018-06-27T07:26:20.122Z,21.3
2018-06-27T07:27:20.925Z,21.7
2018-06-27T07:28:21.740Z,21.6
2018-06-27T07:29:22.560Z,20.4
2018-06-27T07:30:23.355Z,18.6
2018-06-27T07:31:24.150Z,20.8
2018-06-27T07:32:24.993Z,20.8
2018-06-27T07:33:25.837Z,21.3
2018-06-27T07:34:27.464Z,20.9
2018-06-27T07:35:29.121Z,21.4
2018-06-27T07:36:30.568Z,20.6
2018-06-27T07:37:31.738Z,21.0
2018-06-27T07:38:32.749Z,20.1
2018-06-27T07:39:33.528Z,20.1
2018-06-27T07:40:34.340Z,20.1
2018-06-27T07:41:35.159Z,19.3
2018-06-27T07:42:35.958Z,18.8
2018-06-27T07:43:36.745Z,19.0
2018-06-27T07:44:37.738Z,19.3
2018-06-27T07:45:38.520Z,19.0
2018-06-27T07:46:39.519Z,17.8
2018-06-27T07:47:40.514Z,19.3
2018-06-27T07:48:41.519Z,18.2
2018-06-27T07:49:42.571Z,19.3
2018-06-27T07:50:43.316Z,19.1
2018-06-27T07:51:44.307Z,18.5
2018-06-27T07:52:45.144Z,17.8
2018-06-27T07:53:45.974Z,19.0
2018-06-27T07:54:46.757Z,17.1
2018-06-27T07:55:47.556Z,16.2
2018-06-27T07:56:48.351Z,16.2
2018-06-27T07:57:49.131Z,14.8
2018-06-27T07:58:50.170Z,15.2
2018-06-27T07:59:51.185Z,15.1
2018-06-27T08:00:52.181Z,15.4
2018-06-27T08:01:53.061Z,16.1
2018-06-27T08:02:54.032Z,17.0
2018-06-27T08:03:55.318Z,17.4
2018-06-27T08:04:56.359Z,18.0
2018-06-27T08:05:57.208Z,16.2
2018-06-27T08:06:57.972Z,16.3
2018-06-27T08:07:58.768Z,15.2
2018-06-27T08:08:59.545Z,15.7
2018-06-27T08:10:00.386Z,16.1
2018-06-27T08:11:01.374Z,15.9
2018-06-27T08:12:02.362Z,16.2
2018-06-27T08:13:03.611Z,14.7
2018-06-27T08:14:04.632Z,16.3
2018-06-27T08:15:06.157Z,17.4
2018-06-27T08:16:06.954Z,15.3
2018-06-27T08:17:07.752Z,16.3
2018-06-27T08:18:08.540Z,16.7
2018-06-27T08:19:09.341Z,15.9
2018-06-27T08:20:10.149Z,16.8
2018-06-27T08:21:11.152Z,17.5
2018-06-27T08:22:12.107Z,16.9
2018-06-27T08:23:13.149Z,16.2
2018-06-27T08:24:14.142Z,16.5
2018-06-27T08:25:15.395Z,15.7
2018-06-27T08:26:16.439Z,16.2
2018-06-27T08:27:17.382Z,15.8
2018-06-27T08:28:18.162Z,16.4
2018-06-27T08:29:18.972Z,14.8
2018-06-27T08:30:19.767Z,14.8
2018-06-27T08:31:20.575Z,14.3
2018-06-27T08:32:21.359Z,14.9
2018-06-27T08:34:37.888Z,15.9
2018-06-27T08:35:38.679Z,16.3
2018-06-27T08:36:39.471Z,15.1
2018-06-27T08:37:40.269Z,15.0
2018-06-27T08:38:41.144Z,15.1
2018-06-27T08:39:41.931Z,15.0
2018-06-27T08:40:43.190Z,14.6
2018-06-27T08:41:44.176Z,14.8
2018-06-27T08:42:45.152Z,15.3
2018-06-27T08:43:46.258Z,14.8
2018-06-27T08:44:47.745Z,14.8
2018-06-27T08:45:48.750Z,15.4
2018-06-27T08:46:49.551Z,14.9
2018-06-27T08:47:50.558Z,14.4
2018-06-27T08:48:51.803Z,14.4
2018-06-27T08:49:52.848Z,13.7
2018-06-27T08:50:53.840Z,14.0
2018-06-27T08:51:54.829Z,14.0
2018-06-27T08:52:55.815Z,13.5
2018-06-27T08:53:56.609Z,12.3
2018-06-27T08:54:58.087Z,12.9
2018-06-27T08:55:59.274Z,12.6
2018-06-27T08:57:00.069Z,11.0
2018-06-27T08:58:01.076Z,10.3
2018-06-27T08:59:02.147Z,11.1
2018-06-27T09:00:03.364Z,9.0
2018-06-27T09:01:04.151Z,8.1
2018-06-27T09:02:05.147Z,7.7
2018-06-27T09:03:06.153Z,7.8
2018-06-27T09:04:07.162Z,8.2
2018-06-27T09:05:08.205Z,6.9
2018-06-27T09:06:09.193Z,8.1
2018-06-27T09:07:09.977Z,8.8
2018-06-27T09:08:10.820Z,8.0
2018-06-27T09:09:11.608Z,8.3
2018-06-27T09:10:12.411Z,8.8
2018-06-27T09:11:13.206Z,8.3
2018-06-27T09:12:14.672Z,8.4
2018-06-27T09:13:15.653Z,8.0
2018-06-27T09:14:16.648Z,8.8
2018-06-27T09:15:17.651Z,9.2
2018-06-27T09:16:18.640Z,8.9
2018-06-27T09:17:19.687Z,8.1
2018-06-27T09:18:20.890Z,9.5
2018-06-27T09:19:21.679Z,10.3
2018-06-27T09:20:22.471Z,9.7
2018-06-27T09:21:23.274Z,9.9
2018-06-27T09:22:24.259Z,8.9
2018-06-27T09:24:40.572Z,8.8
2018-06-27T09:25:41.409Z,9.0
2018-06-27T09:26:42.197Z,8.7
2018-06-27T09:27:42.979Z,8.2
2018-06-27T09:28:43.776Z,8.1
2018-06-27T09:29:44.830Z,8.1
2018-06-27T09:30:45.807Z,7.2
2018-06-27T09:31:46.792Z,6.8
2018-06-27T09:32:47.785Z,6.9
2018-06-27T09:33:48.779Z,5.9
2018-06-27T09:34:49.768Z,6.3
2018-06-27T09:35:50.771Z,6.4
2018-06-27T09:36:51.789Z,6.7
2018-06-27T09:37:52.581Z,6.4
2018-06-27T09:38:53.385Z,7.1
2018-06-27T09:39:54.181Z,6.7
2018-06-27T09:40:54.967Z,6.5
2018-06-27T09:41:55.844Z,5.8
2018-06-27T09:42:56.800Z,6.6
2018-06-27T09:43:57.797Z,6.4
2018-06-27T09:44:59.227Z,6.6
2018-06-27T09:46:00.061Z,7.0
2018-06-27T09:47:01.073Z,6.7
2018-06-27T09:48:01.934Z,7.0
2018-06-27T09:49:02.743Z,6.7
2018-06-27T09:50:03.536Z,6.6
2018-06-27T09:51:04.565Z,7.1
2018-06-27T09:52:05.376Z,7.6
2018-06-27T09:53:06.153Z,6.9
2018-06-27T09:54:07.151Z,6.5
2018-06-27T09:55:08.158Z,6.2
2018-06-27T09:56:09.155Z,5.4
2018-06-27T09:57:10.587Z,6.5
2018-06-27T09:58:11.482Z,4.5
2018-06-27T09:59:12.482Z,5.5
2018-06-27T10:00:13.315Z,5.2
2018-06-27T10:01:14.107Z,5.6
2018-06-27T10:02:14.910Z,5.3
2018-06-27T10:03:15.706Z,5.8
2018-06-27T10:04:16.495Z,5.5
2018-06-27T10:05:17.288Z,6.0
2018-06-27T10:06:18.323Z,6.0
2018-06-27T10:07:19.315Z,5.8
2018-06-27T10:08:20.321Z,5.5
2018-06-27T10:09:21.128Z,5.8
2018-06-27T10:10:22.213Z,5.8
2018-06-27T10:11:22.999Z,5.1
2018-06-27T10:12:23.787Z,4.6
2018-06-27T10:13:24.575Z,4.4
2018-06-27T10:14:25.388Z,4.3
2018-06-27T10:15:26.228Z,4.1
2018-06-27T10:16:27.268Z,4.2
2018-06-27T10:17:28.040Z,4.1
2018-06-27T10:18:29.309Z,3.2
2018-06-27T10:19:30.099Z,3.2
2018-06-27T10:20:31.097Z,3.2
2018-06-27T10:21:32.137Z,4.0
2018-06-27T10:22:33.169Z,3.8
2018-06-27T10:23:34.162Z,3.7
2018-06-27T10:24:35.149Z,3.7
2018-06-27T10:25:35.996Z,3.7
2018-06-27T10:26:36.763Z,3.6
2018-06-27T10:27:37.761Z,3.0
2018-06-27T10:28:38.536Z,3.2
2018-06-27T10:29:39.586Z,3.1
2018-06-27T10:30:40.576Z,2.9
2018-06-27T10:31:41.586Z,2.6
2018-06-27T10:32:42.834Z,2.8
2018-06-27T10:33:43.841Z,2.4
2018-06-27T10:34:45.087Z,2.5
2018-06-27T10:35:45.950Z,2.8
2018-06-27T10:36:46.698Z,2.7
2018-06-27T10:37:47.549Z,2.1
2018-06-27T10:38:48.340Z,2.3
2018-06-27T10:39:49.149Z,2.2
2018-06-27T10:40:49.933Z,2.1
2018-06-27T10:41:50.928Z,2.3
2018-06-27T10:42:52.180Z,2.4
2018-06-27T10:43:53.165Z,2.4
2018-06-27T10:44:54.174Z,2.1
2018-06-27T10:45:55.221Z,2.6
2018-06-27T10:46:56.007Z,2.1
2018-06-27T10:47:56.843Z,2.3
2018-06-27T10:48:57.622Z,2.4
2018-06-27T10:49:58.427Z,2.6
2018-06-27T10:52:15.019Z,2.4
2018-06-27T10:53:16.038Z,2.9
2018-06-27T10:54:17.359Z,2.6
2018-06-27T10:55:18.174Z,2.1
2018-06-27T10:56:19.018Z,2.7
2018-06-27T10:57:19.822Z,2.3
2018-06-27T10:58:20.632Z,2.6
2018-06-27T10:59:21.419Z,2.0
2018-06-27T11:00:22.374Z,2.5
2018-06-27T11:01:23.162Z,3.0
2018-06-27T11:02:24.165Z,2.6
2018-06-27T11:03:25.157Z,2.2
2018-06-27T11:04:26.348Z,2.2
2018-06-27T11:05:27.343Z,2.6
2018-06-27T11:06:28.165Z,2.2
2018-06-27T11:07:28.961Z,2.5
2018-06-27T11:08:29.769Z,2.4
2018-06-27T11:09:30.845Z,2.5
2018-06-27T11:10:31.828Z,3.1
2018-06-27T11:11:32.819Z,2.2
2018-06-27T11:12:33.822Z,2.3
2018-06-27T11:13:34.823Z,2.9
2018-06-27T11:14:35.867Z,2.3
2018-06-27T11:15:37.080Z,2.8
2018-06-27T11:16:38.119Z,2.2
2018-06-27T11:17:38.893Z,2.2
2018-06-27T11:18:39.713Z,2.7
2018-06-27T11:19:40.702Z,3.1
2018-06-27T11:20:41.510Z,3.4
2018-06-27T11:21:42.299Z,2.8
2018-06-27T11:22:43.075Z,2.7
2018-06-27T11:23:44.062Z,4.8
2018-06-27T11:24:44.852Z,12.4
2018-06-27T11:25:45.836Z,5.5
2018-06-27T11:26:47.105Z,2.9
2018-06-27T11:27:48.076Z,3.0
2018-06-27T11:28:48.876Z,2.6
2018-06-27T11:29:49.692Z,3.1
2018-06-27T11:30:50.488Z,2.7
2018-06-27T11:31:51.289Z,2.5
2018-06-27T11:32:52.183Z,3.2
2018-06-27T11:33:52.946Z,2.5
2018-06-27T11:34:53.833Z,2.7
2018-06-27T11:35:54.595Z,2.9
2018-06-27T11:36:55.597Z,2.5
2018-06-27T11:37:56.847Z,2.0
2018-06-27T11:38:57.850Z,2.5
2018-06-27T11:39:58.858Z,2.7
2018-06-27T11:40:59.879Z,2.5
2018-06-27T11:42:00.688Z,2.9
2018-06-27T11:43:01.747Z,2.9
2018-06-27T11:44:02.543Z,3.0
2018-06-27T11:45:03.320Z,3.3
2018-06-27T11:46:04.118Z,2.6
2018-06-27T11:47:05.198Z,2.5
2018-06-27T11:48:06.195Z,2.9
2018-06-27T11:49:07.193Z,3.0
2018-06-27T11:50:08.185Z,2.6
2018-06-27T11:51:09.008Z,3.2
2018-06-27T11:52:10.054Z,2.2
2018-06-27T11:53:11.102Z,3.1
2018-06-27T11:54:11.856Z,2.5
2018-06-27T11:55:13.131Z,3.0
2018-06-27T11:56:14.209Z,2.7
2018-06-27T11:57:14.990Z,2.9
2018-06-27T11:58:16.035Z,2.9
2018-06-27T11:59:17.031Z,3.0
2018-06-27T12:00:17.846Z,2.1
2018-06-27T12:01:18.821Z,2.2
2018-06-27T12:02:19.824Z,2.4
2018-06-27T12:03:20.786Z,2.4
2018-06-27T12:04:21.567Z,2.4
2018-06-27T12:05:22.628Z,1.8
2018-06-27T12:06:23.434Z,1.8
2018-06-27T12:07:24.234Z,1.9
2018-06-27T12:08:25.203Z,1.9
2018-06-27T12:09:25.979Z,1.9
2018-06-27T12:10:27.030Z,1.6
2018-06-27T12:11:28.018Z,1.4
2018-06-27T12:12:29.260Z,2.0
2018-06-27T12:13:30.242Z,1.6
2018-06-27T12:14:31.254Z,1.8
2018-06-27T12:15:32.291Z,1.6
2018-06-27T12:16:33.289Z,1.4
2018-06-27T12:17:34.542Z,1.4
2018-06-27T12:18:35.345Z,1.3
2018-06-27T12:19:36.343Z,1.2
2018-06-27T12:20:37.326Z,1.4
2018-06-27T12:21:38.114Z,1.4
2018-06-27T12:22:39.148Z,1.5
2018-06-27T12:23:40.140Z,1.1
2018-06-27T12:24:41.146Z,1.5
2018-06-27T12:25:42.131Z,1.1
2018-06-27T12:26:43.133Z,1.3
2018-06-27T12:27:43.946Z,1.1
2018-06-27T12:28:45.028Z,1.3
2018-06-27T12:29:45.841Z,1.3
2018-06-27T12:30:46.624Z,1.0
2018-06-27T12:31:47.697Z,1.3
2018-06-27T12:32:48.688Z,1.2
2018-06-27T12:33:49.478Z,1.1
2018-06-27T12:34:50.481Z,1.4
2018-06-27T12:35:51.485Z,1.2
2018-06-27T12:36:52.477Z,1.2
2018-06-27T12:37:53.492Z,0.9
2018-06-27T12:38:54.492Z,0.9
2018-06-27T12:39:55.285Z,0.8
2018-06-27T12:40:56.350Z,0.9
2018-06-27T12:41:57.377Z,0.9
2018-06-27T12:42:58.461Z,1.0
2018-06-27T12:43:59.238Z,0.8
2018-06-27T12:45:00.116Z,0.8
2018-06-27T12:46:00.926Z,0.8
2018-06-27T12:47:01.715Z,0.9
2018-06-27T12:48:02.715Z,0.8
2018-06-27T12:49:03.713Z,0.9
2018-06-27T12:50:04.838Z,1.0
2018-06-27T12:51:05.764Z,0.8
2018-06-27T12:52:07.212Z,0.9
2018-06-27T12:53:08.168Z,0.9
2018-06-27T12:54:09.035Z,0.8
2018-06-27T12:55:09.988Z,0.7
2018-06-27T12:56:10.819Z,0.9
2018-06-27T12:57:11.629Z,0.6
2018-06-27T12:58:12.430Z,0.8
2018-06-27T12:59:13.404Z,0.7
2018-06-27T13:00:14.468Z,0.9
2018-06-27T13:01:15.253Z,0.8
2018-06-27T13:02:16.244Z,0.7
2018-06-27T13:03:17.272Z,1.0
2018-06-27T13:04:18.241Z,0.7
2018-06-27T13:05:19.092Z,1.1
2018-06-27T13:06:19.931Z,0.8
2018-06-27T13:07:20.709Z,0.7
2018-06-27T13:08:21.531Z,1.0
2018-06-27T13:09:22.443Z,0.9
2018-06-27T13:10:23.131Z,0.8
2018-06-27T13:11:23.923Z,1.2
2018-06-27T13:12:24.894Z,0.7
2018-06-27T13:13:25.887Z,0.9
2018-06-27T13:14:27.141Z,0.8
2018-06-27T13:15:28.155Z,0.7
2018-06-27T13:16:28.960Z,0.8
2018-06-27T13:17:29.770Z,0.7
2018-06-27T13:18:30.931Z,0.9
2018-06-27T13:19:31.925Z,0.8
2018-06-27T13:20:32.923Z,0.8
2018-06-27T13:21:33.968Z,0.9
2018-06-27T13:22:34.956Z,0.7
2018-06-27T13:23:36.167Z,0.8
2018-06-27T13:24:36.963Z,0.8
2018-06-27T13:25:37.760Z,0.8
2018-06-27T13:26:38.598Z,0.8
2018-06-27T13:27:39.394Z,0.8
2018-06-27T13:28:40.195Z,0.9
2018-06-27T13:29:41.006Z,0.9
2018-06-27T13:30:41.809Z,0.9
2018-06-27T13:31:42.847Z,0.8
2018-06-27T13:32:43.647Z,0.7
2018-06-27T13:33:44.453Z,0.7
2018-06-27T13:34:45.483Z,0.8
2018-06-27T13:35:46.285Z,0.7
2018-06-27T13:36:48.464Z,0.7
2018-06-27T13:37:49.261Z,0.8
2018-06-27T13:38:50.274Z,0.7
2018-06-27T13:39:52.178Z,0.7
2018-06-27T13:40:53.273Z,0.8
2018-06-27T13:41:54.277Z,1.1
2018-06-27T13:42:55.117Z,1.0
2018-06-27T13:43:56.377Z,0.8
2018-06-27T13:44:57.189Z,0.7